Time;durP1;ratioP1;P1;durP2;ratioP2;P2;SDS_P1;SDS_P2;PMS_P1;PMS_P2;Temp;Humidity;BMP_temperature;BMP_pressure;BME280_temperature;BME280_humidity;BME280_pressure;Samples;Min_cycle;Max_cycle;Signal;HPM_P1;HPM_P2
2021/01/16 00:00:28;;;;;;;23.90;16.25;;;;;;;;;;5062027;28;20196;-87
2021/01/16 00:02:55;;;;;;;25.60;17.17;;;;;;;;;;5067982;28;20176;-88
2021/01/16 00:05:23;;;;;;;25.02;16.38;;;;;;;;;;5064044;28;20226;-87
2021/01/16 00:07:59;;;;;;;18.95;14.77;;;;;;;;;;5068173;28;20181;-87
2021/01/16 00:10:25;;;;;;;24.17;15.35;;;;;;;;;;5066321;28;20188;-86
2021/01/16 00:12:51;;;;;;;21.95;15.68;;;;;;;;;;5081302;28;20189;-87
2021/01/16 00:15:17;;;;;;;23.55;16.08;;;;;;;;;;5061984;28;20641;-87
2021/01/16 00:17:43;;;;;;;24.85;17.15;;;;;;;;;;5063579;28;20207;-87
2021/01/16 00:20:10;;;;;;;18.88;13.00;;;;;;;;;;5060760;28;20205;-86
2021/01/16 00:22:46;;;;;;;21.48;14.95;;;;;;;;;;5062734;28;20206;-87
2021/01/16 00:25:12;;;;;;;24.40;15.30;;;;;;;;;;5065034;28;20681;-87
2021/01/16 00:27:38;;;;;;;23.10;15.43;;;;;;;;;;5059726;28;20191;-87
2021/01/16 00:30:06;;;;;;;18.15;13.90;;;;;;;;;;5069167;28;20533;-86
2021/01/16 00:32:32;;;;;;;20.80;13.65;;;;;;;;;;5061862;28;20188;-87
2021/01/16 00:34:57;;;;;;;16.42;13.93;;;;;;;;;;5067365;28;20251;-86
2021/01/16 00:37:23;;;;;;;19.85;14.43;;;;;;;;;;5066039;28;20187;-86
2021/01/16 00:39:49;;;;;;;16.38;13.65;;;;;;;;;;5074643;28;20224;-86
2021/01/16 00:42:15;;;;;;;18.77;13.65;;;;;;;;;;5079558;28;20235;-87
2021/01/16 00:44:41;;;;;;;21.67;14.85;;;;;;;;;;5074484;28;20220;-87
2021/01/16 00:47:07;;;;;;;22.95;14.50;;;;;;;;;;5065473;28;20189;-86
2021/01/16 00:49:33;;;;;;;19.52;14.20;;;;;;;;;;5079673;28;20205;-86
2021/01/16 00:51:59;;;;;;;18.05;12.93;;;;;;;;;;5072972;28;20204;-86
2021/01/16 00:54:25;;;;;;;16.75;12.15;;;;;;;;;;5065452;28;20195;-85
2021/01/16 00:56:52;;;;;;;19.70;14.93;;;;;;;;;;5066334;28;20181;-85
2021/01/16 00:59:18;;;;;;;18.52;14.05;;;;;;;;;;5069474;28;20457;-86
2021/01/16 01:01:44;;;;;;;15.82;12.50;;;;;;;;;;5073622;28;20179;-86
2021/01/16 01:04:10;;;;;;;16.88;12.45;;;;;;;;;;5066755;28;20668;-86
2021/01/16 01:06:36;;;;;;;14.85;11.45;;;;;;;;;;5077237;28;20190;-86
2021/01/16 01:09:03;;;;;;;12.63;10.90;;;;;;;;;;5067569;28;20184;-85
2021/01/16 01:11:29;;;;;;;14.40;11.23;;;;;;;;;;5071544;28;20183;-85
2021/01/16 01:13:55;;;;;;;20.73;11.00;;;;;;;;;;5066487;28;20207;-85
2021/01/16 01:16:21;;;;;;;16.05;12.30;;;;;;;;;;5065629;28;20184;-84
2021/01/16 01:18:48;;;;;;;17.02;11.45;;;;;;;;;;5082304;28;20208;-85
2021/01/16 01:21:15;;;;;;;17.02;12.15;;;;;;;;;;5060938;28;20188;-86
2021/01/16 01:23:40;;;;;;;13.27;10.50;;;;;;;;;;5065212;28;20173;-86
2021/01/16 01:26:06;;;;;;;17.00;11.25;;;;;;;;;;5076131;28;20180;-85
2021/01/16 01:28:32;;;;;;;14.18;10.95;;;;;;;;;;5063282;28;20189;-86
2021/01/16 01:30:58;;;;;;;20.10;12.90;;;;;;;;;;5073882;28;20646;-85
2021/01/16 01:33:24;;;;;;;15.20;11.07;;;;;;;;;;5060360;28;20200;-85
2021/01/16 01:35:50;;;;;;;17.25;11.95;;;;;;;;;;5078106;28;20260;-86
2021/01/16 01:38:19;;;;;;;16.25;11.15;;;;;;;;;;5060720;28;20189;-85
2021/01/16 01:40:46;;;;;;;12.95;10.90;;;;;;;;;;5058312;28;20244;-85
2021/01/16 01:43:12;;;;;;;15.50;10.65;;;;;;;;;;5055052;28;20193;-85
2021/01/16 01:45:38;;;;;;;17.15;10.73;;;;;;;;;;5054831;28;20612;-85
2021/01/16 01:48:04;;;;;;;11.32;9.95;;;;;;;;;;5059716;28;20192;-85
2021/01/16 01:50:30;;;;;;;14.07;10.95;;;;;;;;;;5060980;28;20191;-85
2021/01/16 01:52:57;;;;;;;18.08;11.20;;;;;;;;;;5062228;28;20194;-85
2021/01/16 01:55:23;;;;;;;14.48;11.40;;;;;;;;;;5074117;28;20748;-85
2021/01/16 01:57:56;;;;;;;13.48;10.30;;;;;;;;;;5056770;28;20186;-85
2021/01/16 02:00:23;;;;;;;13.38;10.60;;;;;;;;;;5056605;28;20196;-85
2021/01/16 02:02:50;;;;;;;13.65;10.98;;;;;;;;;;5053047;28;20539;-85
2021/01/16 02:05:16;;;;;;;18.48;11.68;;;;;;;;;;5052616;28;20181;-85
2021/01/16 02:07:42;;;;;;;17.38;10.98;;;;;;;;;;5068986;28;20195;-85
2021/01/16 02:10:08;;;;;;;16.27;11.15;;;;;;;;;;5075818;28;20196;-85
2021/01/16 02:12:34;;;;;;;14.07;10.80;;;;;;;;;;5062328;28;20192;-85
2021/01/16 02:15:19;;;;;;;15.38;11.50;;;;;;;;;;5061648;28;20177;-85
2021/01/16 02:17:46;;;;;;;16.17;12.02;;;;;;;;;;5053917;28;20177;-85
2021/01/16 02:20:12;;;;;;;17.05;12.38;;;;;;;;;;5066125;28;20265;-85
2021/01/16 02:22:48;;;;;;;16.17;12.05;;;;;;;;;;5056566;28;20216;-86
2021/01/16 02:25:15;;;;;;;18.83;12.57;;;;;;;;;;5055077;28;20209;-85
2021/01/16 02:27:41;;;;;;;15.75;12.90;;;;;;;;;;5058970;28;20185;-86
2021/01/16 02:30:07;;;;;;;18.42;13.30;;;;;;;;;;5057597;28;20211;-86
2021/01/16 02:32:34;;;;;;;17.35;12.25;;;;;;;;;;5055409;28;20181;-85
2021/01/16 02:35:01;;;;;;;17.27;13.75;;;;;;;;;;5069561;28;20604;-85
2021/01/16 02:37:46;;;;;;;13.73;10.48;;;;;;;;;;5073169;28;20185;-85
2021/01/16 02:40:19;;;;;;;18.88;12.15;;;;;;;;;;5055479;28;20224;-84
2021/01/16 02:42:51;;;;;;;14.50;11.18;;;;;;;;;;5060570;28;20195;-84
2021/01/16 02:45:21;;;;;;;17.20;11.85;;;;;;;;;;5059203;28;20223;-85
2021/01/16 02:48:06;;;;;;;17.20;12.60;;;;;;;;;;5057414;28;20203;-85
2021/01/16 02:50:36;;;;;;;17.23;11.68;;;;;;;;;;5072685;28;20182;-86
2021/01/16 02:53:03;;;;;;;16.50;12.30;;;;;;;;;;5055642;28;20249;-86
2021/01/16 02:55:29;;;;;;;22.67;14.88;;;;;;;;;;5071517;28;20201;-86
2021/01/16 02:57:55;;;;;;;15.02;13.15;;;;;;;;;;5059494;28;20177;-85
2021/01/16 03:00:22;;;;;;;20.13;14.20;;;;;;;;;;5056349;28;20201;-85
2021/01/16 03:02:48;;;;;;;17.05;13.00;;;;;;;;;;5057217;28;20173;-85
2021/01/16 03:05:17;;;;;;;15.75;12.02;;;;;;;;;;5055537;28;20223;-86
2021/01/16 03:07:43;;;;;;;15.00;13.02;;;;;;;;;;5070780;28;20188;-86
2021/01/16 03:10:11;;;;;;;18.25;12.57;;;;;;;;;;5058992;28;20236;-86
2021/01/16 03:12:37;;;;;;;17.58;12.98;;;;;;;;;;5054914;28;20189;-85
2021/01/16 03:15:14;;;;;;;18.42;12.65;;;;;;;;;;5062490;28;20173;-86
2021/01/16 03:17:45;;;;;;;17.70;12.95;;;;;;;;;;5054211;28;20185;-85
2021/01/16 03:20:12;;;;;;;16.65;12.75;;;;;;;;;;5069415;28;20205;-85
2021/01/16 03:22:38;;;;;;;15.82;11.15;;;;;;;;;;5071472;28;20213;-85
2021/01/16 03:25:04;;;;;;;18.35;11.98;;;;;;;;;;5058275;28;20235;-86
2021/01/16 03:27:30;;;;;;;18.33;13.15;;;;;;;;;;5054221;28;20192;-86
2021/01/16 03:29:56;;;;;;;16.03;12.53;;;;;;;;;;5066158;28;20216;-85
2021/01/16 03:32:22;;;;;;;18.98;12.40;;;;;;;;;;5058182;28;20461;-85
2021/01/16 03:34:49;;;;;;;19.38;13.35;;;;;;;;;;5073956;28;20182;-86
2021/01/16 03:37:15;;;;;;;20.00;13.38;;;;;;;;;;5064724;28;20188;-85
2021/01/16 03:39:41;;;;;;;18.30;12.18;;;;;;;;;;5056543;28;20233;-86
2021/01/16 03:42:09;;;;;;;16.52;12.70;;;;;;;;;;5062131;28;20188;-85
2021/01/16 03:44:35;;;;;;;17.23;12.18;;;;;;;;;;5058158;28;20239;-86
2021/01/16 03:47:01;;;;;;;20.60;14.07;;;;;;;;;;5072910;28;20190;-86
2021/01/16 03:49:27;;;;;;;18.77;13.82;;;;;;;;;;5060565;28;20542;-85
2021/01/16 03:51:53;;;;;;;15.90;13.00;;;;;;;;;;5058978;28;20269;-84
2021/01/16 03:54:19;;;;;;;19.20;14.80;;;;;;;;;;5058821;28;20235;-86
2021/01/16 03:56:45;;;;;;;17.42;13.43;;;;;;;;;;5061689;28;20189;-85
2021/01/16 03:59:11;;;;;;;21.73;14.23;;;;;;;;;;5057462;28;20213;-85
2021/01/16 04:01:38;;;;;;;20.73;14.02;;;;;;;;;;5060865;28;20212;-85
2021/01/16 04:04:04;;;;;;;20.50;14.75;;;;;;;;;;5057056;28;20182;-85
2021/01/16 04:06:30;;;;;;;24.10;14.50;;;;;;;;;;5061644;28;20189;-85
2021/01/16 04:08:56;;;;;;;22.88;14.85;;;;;;;;;;5060742;28;20201;-87
2021/01/16 04:11:22;;;;;;;22.45;15.32;;;;;;;;;;5057228;28;20196;-86
2021/01/16 04:13:48;;;;;;;20.05;14.85;;;;;;;;;;5075765;28;20567;-86
2021/01/16 04:16:14;;;;;;;20.45;15.00;;;;;;;;;;5060269;28;20200;-85
2021/01/16 04:18:40;;;;;;;20.60;15.45;;;;;;;;;;5061902;28;20250;-85
2021/01/16 04:21:06;;;;;;;22.27;14.95;;;;;;;;;;5061605;28;20701;-86
2021/01/16 04:23:32;;;;;;;23.13;15.35;;;;;;;;;;5072645;28;20248;-86
2021/01/16 04:25:59;;;;;;;21.95;15.65;;;;;;;;;;5073358;28;20253;-86
2021/01/16 04:28:25;;;;;;;24.10;16.35;;;;;;;;;;5071912;28;20197;-86
2021/01/16 04:30:53;;;;;;;23.27;16.60;;;;;;;;;;5058555;28;20642;-86
2021/01/16 04:33:19;;;;;;;26.92;17.10;;;;;;;;;;5058525;28;20225;-86
2021/01/16 04:35:45;;;;;;;24.30;16.05;;;;;;;;;;5061934;28;20347;-85
2021/01/16 04:38:11;;;;;;;22.33;14.55;;;;;;;;;;5058647;28;20257;-85
2021/01/16 04:40:37;;;;;;;20.63;15.80;;;;;;;;;;5073241;28;20691;-86
2021/01/16 04:43:04;;;;;;;20.20;14.75;;;;;;;;;;5070075;28;20674;-85
2021/01/16 04:45:34;;;;;;;24.55;15.07;;;;;;;;;;5062025;28;20191;-85
2021/01/16 04:48:00;;;;;;;22.23;15.52;;;;;;;;;;5064717;28;20170;-86
2021/01/16 04:50:31;;;;;;;17.95;13.82;;;;;;;;;;5072303;28;20189;-86
2021/01/16 04:53:04;;;;;;;20.17;13.45;;;;;;;;;;5072630;28;20212;-85
2021/01/16 04:55:34;;;;;;;20.10;14.93;;;;;;;;;;5060392;28;20193;-85
2021/01/16 04:58:10;;;;;;;20.52;14.45;;;;;;;;;;5058251;28;20203;-86
2021/01/16 05:00:37;;;;;;;22.20;15.32;;;;;;;;;;5060254;28;20220;-86
2021/01/16 05:03:05;;;;;;;22.42;14.75;;;;;;;;;;5064310;28;20213;-85
2021/01/16 05:05:31;;;;;;;20.45;14.13;;;;;;;;;;5073809;28;20327;-86
2021/01/16 05:07:57;;;;;;;25.52;15.77;;;;;;;;;;5071357;28;20568;-85
2021/01/16 05:10:23;;;;;;;18.60;14.00;;;;;;;;;;5060612;28;20189;-85
2021/01/16 05:13:05;;;;;;;20.67;15.68;;;;;;;;;;5056164;28;20546;-85
2021/01/16 05:15:32;;;;;;;17.17;14.50;;;;;;;;;;5058387;28;20187;-84
2021/01/16 05:18:05;;;;;;;21.58;16.20;;;;;;;;;;5059929;28;20522;-85
2021/01/16 05:20:33;;;;;;;18.88;14.38;;;;;;;;;;5071743;28;20220;-85
2021/01/16 05:23:17;;;;;;;23.27;15.57;;;;;;;;;;5059961;28;20564;-84
2021/01/16 05:25:47;;;;;;;23.48;15.55;;;;;;;;;;5072613;28;20178;-85
2021/01/16 05:28:15;;;;;;;23.15;16.38;;;;;;;;;;5056059;28;20197;-85
2021/01/16 05:30:44;;;;;;;21.38;15.38;;;;;;;;;;5061066;28;20219;-84
2021/01/16 05:33:11;;;;;;;22.17;15.35;;;;;;;;;;5058797;28;20207;-85
2021/01/16 05:35:37;;;;;;;20.13;15.18;;;;;;;;;;5056426;28;20724;-85
2021/01/16 05:38:03;;;;;;;17.55;13.30;;;;;;;;;;5055494;28;20182;-85
2021/01/16 05:40:29;;;;;;;20.08;15.40;;;;;;;;;;5074012;28;20256;-85
2021/01/16 05:42:56;;;;;;;20.27;14.55;;;;;;;;;;5058109;28;20188;-83
2021/01/16 05:45:23;;;;;;;23.48;15.02;;;;;;;;;;5056333;28;20260;-85
2021/01/16 05:47:49;;;;;;;23.08;15.25;;;;;;;;;;5055919;28;20488;-85
2021/01/16 05:50:15;;;;;;;20.92;15.30;;;;;;;;;;5055934;28;20220;-85
2021/01/16 05:52:41;;;;;;;22.48;14.35;;;;;;;;;;5057170;28;20190;-85
2021/01/16 05:55:07;;;;;;;24.92;14.48;;;;;;;;;;5055225;28;20208;-85
2021/01/16 05:57:33;;;;;;;19.42;14.35;;;;;;;;;;5054328;28;20590;-85
2021/01/16 06:00:00;;;;;;;19.17;14.82;;;;;;;;;;5063096;28;20204;-85
2021/01/16 06:02:28;;;;;;;20.70;14.32;;;;;;;;;;5070691;28;20185;-85
2021/01/16 06:04:56;;;;;;;17.20;13.98;;;;;;;;;;5072274;28;20273;-85
2021/01/16 06:07:23;;;;;;;22.42;16.67;;;;;;;;;;5073981;28;20180;-85
2021/01/16 06:09:50;;;;;;;17.65;13.90;;;;;;;;;;5057285;28;20178;-85
2021/01/16 06:12:16;;;;;;;20.27;15.02;;;;;;;;;;5057285;28;20666;-84
2021/01/16 06:14:43;;;;;;;21.40;16.38;;;;;;;;;;5057148;28;20181;-85
2021/01/16 06:17:11;;;;;;;21.35;15.07;;;;;;;;;;5073788;28;20185;-85
2021/01/16 06:19:41;;;;;;;18.40;14.13;;;;;;;;;;5064706;28;20216;-85
2021/01/16 06:22:10;;;;;;;18.20;13.73;;;;;;;;;;5061025;28;20626;-83
2021/01/16 06:24:37;;;;;;;18.95;14.60;;;;;;;;;;5055786;28;20182;-84
2021/01/16 06:27:03;;;;;;;21.33;14.70;;;;;;;;;;5057849;28;20227;-85
2021/01/16 06:29:30;;;;;;;19.65;14.45;;;;;;;;;;5070061;28;20200;-85
2021/01/16 06:32:07;;;;;;;25.23;14.93;;;;;;;;;;5061917;28;20180;-85
2021/01/16 06:34:40;;;;;;;24.40;15.80;;;;;;;;;;5071659;28;20720;-85
2021/01/16 06:37:07;;;;;;;20.30;15.27;;;;;;;;;;5054574;28;20209;-84
2021/01/16 06:39:34;;;;;;;21.83;15.82;;;;;;;;;;5059531;28;20225;-85
2021/01/16 06:42:05;;;;;;;21.77;15.48;;;;;;;;;;5062652;28;20200;-85
2021/01/16 06:44:31;;;;;;;18.63;15.20;;;;;;;;;;5069874;28;20189;-84
2021/01/16 06:46:59;;;;;;;19.83;14.63;;;;;;;;;;5069704;28;20197;-85
2021/01/16 06:49:26;;;;;;;20.88;13.82;;;;;;;;;;5056702;28;20252;-85
2021/01/16 06:51:53;;;;;;;19.23;14.85;;;;;;;;;;5056685;28;20185;-85
2021/01/16 06:54:32;;;;;;;20.67;16.63;;;;;;;;;;5056312;28;20168;-84
2021/01/16 06:57:03;;;;;;;20.67;14.85;;;;;;;;;;5057078;28;20181;-85
2021/01/16 06:59:29;;;;;;;21.35;15.35;;;;;;;;;;5069315;28;20204;-85
2021/01/16 07:01:56;;;;;;;21.05;15.80;;;;;;;;;;5070058;28;20269;-84
2021/01/16 07:04:23;;;;;;;21.60;14.50;;;;;;;;;;5057420;28;20177;-85
2021/01/16 07:06:50;;;;;;;21.08;14.82;;;;;;;;;;5054881;28;20170;-85
2021/01/16 07:09:20;;;;;;;20.98;14.85;;;;;;;;;;5055174;28;20184;-85
2021/01/16 07:11:47;;;;;;;18.95;14.27;;;;;;;;;;5060921;28;20280;-85
2021/01/16 07:14:13;;;;;;;21.83;15.00;;;;;;;;;;5069937;28;20180;-85
2021/01/16 07:16:41;;;;;;;24.77;17.63;;;;;;;;;;5072945;28;20666;-85
2021/01/16 07:19:07;;;;;;;25.25;18.00;;;;;;;;;;5060581;28;20201;-85
2021/01/16 07:21:39;;;;;;;24.60;15.75;;;;;;;;;;5054172;28;20181;-86
2021/01/16 07:24:06;;;;;;;22.30;15.18;;;;;;;;;;5061805;28;20196;-86
2021/01/16 07:26:36;;;;;;;24.23;14.88;;;;;;;;;;5055642;28;20181;-86
2021/01/16 07:29:02;;;;;;;21.25;15.63;;;;;;;;;;5054495;28;20181;-86
2021/01/16 07:31:31;;;;;;;20.15;14.70;;;;;;;;;;5072963;28;20185;-85
2021/01/16 07:33:58;;;;;;;22.27;14.43;;;;;;;;;;5056967;28;20189;-87
2021/01/16 07:36:27;;;;;;;22.52;15.30;;;;;;;;;;5055628;28;20200;-85
2021/01/16 07:38:53;;;;;;;18.88;14.50;;;;;;;;;;5056730;28;20189;-86
2021/01/16 07:41:22;;;;;;;21.60;15.68;;;;;;;;;;5069632;28;20217;-86
2021/01/16 07:44:04;;;;;;;21.08;14.20;;;;;;;;;;5055176;28;20196;-86
2021/01/16 07:46:30;;;;;;;21.92;14.40;;;;;;;;;;5047535;28;20291;-87
2021/01/16 07:48:57;;;;;;;21.27;13.95;;;;;;;;;;5055962;28;20686;-87
2021/01/16 07:51:26;;;;;;;21.35;14.38;;;;;;;;;;5066080;28;20622;-87
2021/01/16 07:53:55;;;;;;;19.45;13.77;;;;;;;;;;5047859;28;20182;-86
2021/01/16 07:56:22;;;;;;;20.17;15.38;;;;;;;;;;5056470;28;20196;-86
2021/01/16 07:59:03;;;;;;;21.10;14.43;;;;;;;;;;5067799;28;20208;-85
2021/01/16 08:01:42;;;;;;;18.88;14.90;;;;;;;;;;5056397;28;20192;-84
2021/01/16 08:04:20;;;;;;;18.13;13.23;;;;;;;;;;5055742;28;20181;-85
2021/01/16 08:06:55;;;;;;;20.15;13.80;;;;;;;;;;5059983;28;20623;-84
2021/01/16 08:09:45;;;;;;;20.23;13.02;;;;;;;;;;5052820;28;20694;-84
2021/01/16 08:12:12;;;;;;;18.83;12.65;;;;;;;;;;5047448;28;20181;-83
2021/01/16 08:14:38;;;;;;;16.98;12.40;;;;;;;;;;5055761;28;20246;-84
2021/01/16 08:17:05;;;;;;;16.48;11.90;;;;;;;;;;5054052;28;20618;-84
2021/01/16 08:19:49;;;;;;;15.98;11.32;;;;;;;;;;5056055;28;20554;-83
2021/01/16 08:22:16;;;;;;;23.27;13.07;;;;;;;;;;5050773;28;20626;-83
2021/01/16 08:24:55;;;;;;;17.40;11.60;;;;;;;;;;5063764;28;20209;-83
2021/01/16 08:27:24;;;;;;;15.80;11.30;;;;;;;;;;5063765;28;20188;-82
2021/01/16 08:29:50;;;;;;;15.90;11.95;;;;;;;;;;5059543;28;20186;-83
2021/01/16 08:32:16;;;;;;;17.33;11.70;;;;;;;;;;5050111;28;20207;-82
2021/01/16 08:35:01;;;;;;;13.18;10.80;;;;;;;;;;5076744;28;20491;-83
2021/01/16 08:37:35;;;;;;;14.85;11.65;;;;;;;;;;5058269;28;20243;-82
2021/01/16 08:40:03;;;;;;;16.92;11.75;;;;;;;;;;5058866;28;20768;-82
2021/01/16 08:42:29;;;;;;;15.85;11.07;;;;;;;;;;5061265;28;20231;-83
2021/01/16 08:44:56;;;;;;;13.95;11.15;;;;;;;;;;5063819;28;20649;-83
2021/01/16 08:47:23;;;;;;;13.15;9.48;;;;;;;;;;5057286;28;20185;-84
2021/01/16 08:49:49;;;;;;;13.35;11.18;;;;;;;;;;5053419;28;20190;-82
2021/01/16 08:52:34;;;;;;;13.65;11.60;;;;;;;;;;5056074;28;20193;-82
2021/01/16 08:55:01;;;;;;;13.25;10.13;;;;;;;;;;5051374;28;20187;-81
2021/01/16 08:57:33;;;;;;;16.35;11.90;;;;;;;;;;5058603;28;20185;-81
2021/01/16 09:00:15;;;;;;;19.08;11.55;;;;;;;;;;5067310;28;20299;-80
2021/01/16 09:02:41;;;;;;;13.45;10.35;;;;;;;;;;5054058;28;20192;-80
2021/01/16 09:05:23;;;;;;;18.40;11.95;;;;;;;;;;5058703;28;20217;-81
2021/01/16 09:07:49;;;;;;;17.80;12.30;;;;;;;;;;5058821;28;20182;-81
2021/01/16 09:10:21;;;;;;;22.27;13.77;;;;;;;;;;5061705;28;20190;-80
2021/01/16 09:12:47;;;;;;;16.35;11.10;;;;;;;;;;5060407;28;20197;-81
2021/01/16 09:15:17;;;;;;;16.27;12.13;;;;;;;;;;5057536;28;20707;-83
2021/01/16 09:18:02;;;;;;;13.63;11.35;;;;;;;;;;5059865;28;20181;-81
2021/01/16 09:20:35;;;;;;;19.20;12.35;;;;;;;;;;5075349;28;20208;-82
2021/01/16 09:23:20;;;;;;;16.73;13.55;;;;;;;;;;5061767;28;20324;-81
2021/01/16 09:25:50;;;;;;;19.15;13.85;;;;;;;;;;5052365;28;20209;-82
2021/01/16 09:28:16;;;;;;;18.67;12.02;;;;;;;;;;5054820;28;20216;-81
2021/01/16 09:30:42;;;;;;;17.25;12.02;;;;;;;;;;5056323;28;20218;-81
2021/01/16 09:33:21;;;;;;;17.02;12.90;;;;;;;;;;5059854;28;20177;-82
2021/01/16 09:35:47;;;;;;;17.77;12.93;;;;;;;;;;5063310;28;20188;-83
2021/01/16 09:38:20;;;;;;;16.85;13.13;;;;;;;;;;5075970;28;20188;-82
2021/01/16 09:40:47;;;;;;;18.80;13.00;;;;;;;;;;5056868;28;20229;-87
2021/01/16 09:43:20;;;;;;;17.33;13.52;;;;;;;;;;5058020;28;20205;-86
2021/01/16 09:45:55;;;;;;;20.52;14.70;;;;;;;;;;5062761;28;20289;-88
2021/01/16 09:48:31;;;;;;;17.35;12.98;;;;;;;;;;5060544;28;20223;-89
2021/01/16 09:51:01;;;;;;;19.42;12.45;;;;;;;;;;5061282;28;20531;-88
2021/01/16 09:53:27;;;;;;;17.60;12.98;;;;;;;;;;5057559;28;20185;-88
2021/01/16 09:55:54;;;;;;;18.17;12.25;;;;;;;;;;5078902;28;20276;-85
2021/01/16 09:58:28;;;;;;;17.00;12.38;;;;;;;;;;5071784;28;20753;-84
2021/01/16 10:00:55;;;;;;;20.38;14.38;;;;;;;;;;5055812;28;20724;-88
2021/01/16 10:03:33;;;;;;;17.33;12.90;;;;;;;;;;5060129;28;20177;-86
2021/01/16 10:06:05;;;;;;;19.60;14.23;;;;;;;;;;5065171;28;20177;-83
2021/01/16 10:08:34;;;;;;;18.08;13.10;;;;;;;;;;5058978;28;20185;-84
2021/01/16 10:11:01;;;;;;;16.27;13.98;;;;;;;;;;5057906;28;20236;-83
2021/01/16 10:13:31;;;;;;;18.75;13.68;;;;;;;;;;5057449;28;20645;-84
2021/01/16 10:15:58;;;;;;;20.10;13.85;;;;;;;;;;5061637;28;20214;-82
2021/01/16 10:18:26;;;;;;;18.25;13.02;;;;;;;;;;5057404;28;20604;-84
2021/01/16 10:21:02;;;;;;;19.08;13.57;;;;;;;;;;5057811;28;20404;-84
2021/01/16 10:23:29;;;;;;;17.67;13.20;;;;;;;;;;5061869;28;20173;-84
2021/01/16 10:25:59;;;;;;;17.35;13.70;;;;;;;;;;5057080;28;20192;-84
2021/01/16 10:28:26;;;;;;;19.48;13.15;;;;;;;;;;5068999;28;20679;-83
2021/01/16 10:30:58;;;;;;;14.02;10.82;;;;;;;;;;5054538;28;20190;-82
2021/01/16 10:33:24;;;;;;;17.35;12.05;;;;;;;;;;5059583;28;20180;-83
2021/01/16 10:35:51;;;;;;;18.92;12.30;;;;;;;;;;5054272;28;20192;-83
2021/01/16 10:38:50;;;;;;;18.48;12.88;;;;;;;;;;5050132;28;20189;-81
2021/01/16 10:41:19;;;;;;;18.88;12.05;;;;;;;;;;4999677;28;20219;-83
2021/01/16 10:43:45;;;;;;;15.80;13.02;;;;;;;;;;4992413;28;20196;-83
2021/01/16 10:46:11;;;;;;;16.40;10.75;;;;;;;;;;4981500;28;20179;-83
2021/01/16 10:48:38;;;;;;;17.95;13.13;;;;;;;;;;4982680;28;20218;-83
2021/01/16 10:51:08;;;;;;;18.73;12.63;;;;;;;;;;5001380;28;20187;-86
2021/01/16 10:53:35;;;;;;;17.50;11.68;;;;;;;;;;4986248;28;20558;-84
2021/01/16 10:56:07;;;;;;;16.10;11.95;;;;;;;;;;5000007;28;20187;-84
2021/01/16 10:58:34;;;;;;;14.95;10.82;;;;;;;;;;4999856;28;20223;-86
2021/01/16 11:01:00;;;;;;;14.18;10.32;;;;;;;;;;4986408;28;20183;-84
2021/01/16 11:03:30;;;;;;;15.55;11.52;;;;;;;;;;4983870;28;20191;-82
2021/01/16 11:05:57;;;;;;;15.57;11.63;;;;;;;;;;5000881;28;20174;-81
2021/01/16 11:08:27;;;;;;;15.57;10.88;;;;;;;;;;4995687;28;20253;-80
2021/01/16 11:10:53;;;;;;;18.80;12.75;;;;;;;;;;4996277;28;20233;-79
2021/01/16 11:13:27;;;;;;;17.23;12.85;;;;;;;;;;4999554;28;20198;-80
2021/01/16 11:16:13;;;;;;;18.35;11.48;;;;;;;;;;5005680;28;20229;-79
2021/01/16 11:18:41;;;;;;;13.85;10.80;;;;;;;;;;5060007;28;20200;-80
2021/01/16 11:21:08;;;;;;;17.08;12.38;;;;;;;;;;5057154;28;20196;-83
2021/01/16 11:23:34;;;;;;;14.38;9.98;;;;;;;;;;5056887;28;20177;-81
2021/01/16 11:26:10;;;;;;;14.70;11.90;;;;;;;;;;5052475;28;20178;-82
2021/01/16 11:28:49;;;;;;;16.95;13.23;;;;;;;;;;5057253;28;20436;-83
2021/01/16 11:31:28;;;;;;;14.02;11.88;;;;;;;;;;5055832;28;20178;-85
2021/01/16 11:34:09;;;;;;;18.08;13.70;;;;;;;;;;5055271;28;20200;-84
2021/01/16 11:36:36;;;;;;;17.50;12.90;;;;;;;;;;5058033;28;20170;-84
2021/01/16 11:39:02;;;;;;;15.07;12.48;;;;;;;;;;5058521;28;20220;-82
2021/01/16 11:41:47;;;;;;;15.73;12.38;;;;;;;;;;5076737;28;20271;-82
2021/01/16 11:44:13;;;;;;;18.40;11.93;;;;;;;;;;5075451;28;20187;-85
2021/01/16 11:46:39;;;;;;;15.40;12.45;;;;;;;;;;5050033;28;20192;-81
2021/01/16 11:49:05;;;;;;;15.43;11.82;;;;;;;;;;5059000;28;20196;-82
2021/01/16 11:51:31;;;;;;;17.27;14.07;;;;;;;;;;5065747;28;20287;-82
2021/01/16 11:53:57;;;;;;;15.30;12.52;;;;;;;;;;5066794;28;20184;-82
2021/01/16 11:56:24;;;;;;;19.45;13.55;;;;;;;;;;5067174;28;20188;-82
2021/01/16 11:58:51;;;;;;;19.95;13.63;;;;;;;;;;5076706;28;20196;-84
2021/01/16 12:01:18;;;;;;;19.92;14.57;;;;;;;;;;5076530;28;20172;-82
2021/01/16 12:03:44;;;;;;;20.70;13.50;;;;;;;;;;5078167;28;20183;-81
2021/01/16 12:06:14;;;;;;;19.52;14.35;;;;;;;;;;5063364;28;20174;-80
2021/01/16 12:08:45;;;;;;;18.27;13.30;;;;;;;;;;5062914;28;20191;-80
2021/01/16 12:11:11;;;;;;;18.67;13.00;;;;;;;;;;5065114;28;20172;-82
2021/01/16 12:13:39;;;;;;;14.57;9.98;;;;;;;;;;5078643;28;20200;-82
2021/01/16 12:16:05;;;;;;;19.08;12.38;;;;;;;;;;5064542;28;20638;-83
2021/01/16 12:18:37;;;;;;;14.75;11.82;;;;;;;;;;5060505;28;20189;-82
2021/01/16 12:21:03;;;;;;;18.25;13.10;;;;;;;;;;5078394;28;20184;-82
2021/01/16 12:23:35;;;;;;;15.65;12.02;;;;;;;;;;5060944;28;20208;-83
2021/01/16 12:26:04;;;;;;;18.77;12.15;;;;;;;;;;5061858;28;20185;-81
2021/01/16 12:28:33;;;;;;;15.43;11.82;;;;;;;;;;5079827;28;20237;-85
2021/01/16 12:31:02;;;;;;;15.63;11.63;;;;;;;;;;5062167;28;20254;-83
2021/01/16 12:33:29;;;;;;;17.42;10.23;;;;;;;;;;5078828;28;20173;-82
2021/01/16 12:36:04;;;;;;;15.25;10.68;;;;;;;;;;5079382;28;20176;-83
2021/01/16 12:38:30;;;;;;;14.90;11.07;;;;;;;;;;5061250;28;20221;-83
2021/01/16 12:40:56;;;;;;;12.60;10.20;;;;;;;;;;5076426;28;20225;-83
2021/01/16 12:43:22;;;;;;;18.63;11.50;;;;;;;;;;5080437;28;20188;-84
2021/01/16 12:45:48;;;;;;;20.23;11.55;;;;;;;;;;5067945;28;20177;-83
2021/01/16 12:48:14;;;;;;;17.35;11.65;;;;;;;;;;5061383;28;20200;-81
2021/01/16 12:50:41;;;;;;;14.15;10.18;;;;;;;;;;5077033;28;20211;-82
2021/01/16 12:53:08;;;;;;;13.13;10.55;;;;;;;;;;5080181;28;20199;-82
2021/01/16 12:55:34;;;;;;;16.30;10.98;;;;;;;;;;5079459;28;20212;-80
2021/01/16 12:58:01;;;;;;;12.15;10.50;;;;;;;;;;5067698;28;20189;-79
2021/01/16 13:00:30;;;;;;;13.00;10.18;;;;;;;;;;5081339;28;20204;-80
2021/01/16 13:02:57;;;;;;;18.45;11.63;;;;;;;;;;5065652;28;20580;-79
2021/01/16 13:05:27;;;;;;;14.45;10.27;;;;;;;;;;5080603;28;20191;-78
2021/01/16 13:07:57;;;;;;;15.10;10.18;;;;;;;;;;5062953;28;20507;-76
2021/01/16 13:10:24;;;;;;;12.48;10.20;;;;;;;;;;5079975;28;20654;-79
2021/01/16 13:12:50;;;;;;;13.40;10.63;;;;;;;;;;5080285;28;20185;-78
2021/01/16 13:15:16;;;;;;;13.85;11.23;;;;;;;;;;5081053;28;20265;-78
2021/01/16 13:17:43;;;;;;;15.70;11.18;;;;;;;;;;5066836;28;20180;-80
2021/01/16 13:20:10;;;;;;;14.60;11.45;;;;;;;;;;5063478;28;20234;-82
2021/01/16 13:22:36;;;;;;;11.95;9.90;;;;;;;;;;5051888;28;20188;-81
2021/01/16 13:25:10;;;;;;;11.27;8.55;;;;;;;;;;5065448;28;20185;-85
2021/01/16 13:27:37;;;;;;;15.00;10.35;;;;;;;;;;5079914;28;20662;-85
2021/01/16 13:30:13;;;;;;;14.70;10.93;;;;;;;;;;5068090;28;20819;-87
2021/01/16 13:32:41;;;;;;;17.85;11.68;;;;;;;;;;5064039;28;20195;-87
2021/01/16 13:35:09;;;;;;;18.30;12.70;;;;;;;;;;5075799;28;20181;-87
2021/01/16 13:37:35;;;;;;;14.45;9.55;;;;;;;;;;5065432;28;20469;-85
2021/01/16 13:40:04;;;;;;;12.52;9.60;;;;;;;;;;5077590;28;20941;-84
2021/01/16 13:42:32;;;;;;;15.52;10.18;;;;;;;;;;5061733;28;20243;-81
2021/01/16 13:45:03;;;;;;;11.93;9.70;;;;;;;;;;5065692;28;20207;-80
2021/01/16 13:47:29;;;;;;;12.63;9.25;;;;;;;;;;5063801;28;20184;-80
2021/01/16 13:50:12;;;;;;;10.13;8.38;;;;;;;;;;5076686;28;20192;-81
2021/01/16 13:52:42;;;;;;;12.15;8.63;;;;;;;;;;5076115;28;20181;-81
2021/01/16 13:55:15;;;;;;;12.93;9.63;;;;;;;;;;5080395;28;20603;-80
2021/01/16 13:57:42;;;;;;;12.65;9.35;;;;;;;;;;5056896;28;20252;-81
2021/01/16 14:00:12;;;;;;;13.95;9.48;;;;;;;;;;5079280;28;20200;-85
2021/01/16 14:02:39;;;;;;;12.70;10.95;;;;;;;;;;5076960;28;20329;-85
2021/01/16 14:05:05;;;;;;;14.65;9.13;;;;;;;;;;5063490;28;20247;-85
2021/01/16 14:07:31;;;;;;;11.70;9.73;;;;;;;;;;5078702;28;20184;-85
2021/01/16 14:09:59;;;;;;;13.23;9.43;;;;;;;;;;5070559;28;20185;-84
2021/01/16 14:12:26;;;;;;;16.48;11.45;;;;;;;;;;5080692;28;20179;-82
2021/01/16 14:14:51;;;;;;;11.32;9.25;;;;;;;;;;5076525;28;20189;-82
2021/01/16 14:17:25;;;;;;;14.95;10.18;;;;;;;;;;5078330;28;20177;-84
2021/01/16 14:20:01;;;;;;;14.65;8.95;;;;;;;;;;5074320;28;20254;-85
2021/01/16 14:22:41;;;;;;;15.45;11.10;;;;;;;;;;5076686;28;20172;-87
2021/01/16 14:25:08;;;;;;;11.13;8.82;;;;;;;;;;5063776;28;20248;-89
2021/01/16 14:27:43;;;;;;;12.52;9.52;;;;;;;;;;5061882;28;20193;-86